sensor_id;sensor_type;location;lat;lon;timestamp;temperature;humidity
17346;DHT22;8790;53.590;10.002;2023-04-24T00:00:58;14.30;99.90
17346;DHT22;8790;53.590;10.002;2023-04-24T00:03:31;14.40;99.90
17346;DHT22;8790;53.590;10.002;2023-04-24T00:06:03;14.30;99.90
17346;DHT22;8790;53.590;10.002;2023-04-24T00:08:37;14.30;99.90
17346;DHT22;8790;53.590;10.002;2023-04-24T00:11:08;14.30;99.90
17346;DHT22;8790;53.590;10.002;2023-04-24T00:13:40;14.30;99.90
17346;DHT22;8790;53.590;10.002;2023-04-24T00:16:12;14.30;99.90
17346;DHT22;8790;53.590;10.002;2023-04-24T00:18:44;14.30;99.90
17346;DHT22;8790;53.590;10.002;2023-04-24T00:21:18;14.30;99.90
17346;DHT22;8790;53.590;10.002;2023-04-24T00:23:51;14.30;99.90
17346;DHT22;8790;53.590;10.002;2023-04-24T00:26:23;14.30;99.90
17346;DHT22;8790;53.590;10.002;2023-04-24T00:28:55;14.20;99.90
17346;DHT22;8790;53.590;10.002;2023-04-24T00:31:27;14.20;99.90
17346;DHT22;8790;53.590;10.002;2023-04-24T00:33:58;14.10;99.90
17346;DHT22;8790;53.590;10.002;2023-04-24T00:36:30;14.20;99.90
17346;DHT22;8790;53.590;10.002;2023-04-24T00:39:04;14.10;99.90
17346;DHT22;8790;53.590;10.002;2023-04-24T00:41:36;14.20;99.90
17346;DHT22;8790;53.590;10.002;2023-04-24T00:44:08;14.10;99.90
17346;DHT22;8790;53.590;10.002;2023-04-24T00:46:40;14.00;99.90
17346;DHT22;8790;53.590;10.002;2023-04-24T00:49:12;13.90;99.90
17346;DHT22;8790;53.590;10.002;2023-04-24T00:51:45;13.90;99.90
17346;DHT22;8790;53.590;10.002;2023-04-24T00:54:19;14.00;99.90
17346;DHT22;8790;53.590;10.002;2023-04-24T00:56:51;13.90;99.90
17346;DHT22;8790;53.590;10.002;2023-04-24T00:59:22;13.90;99.90
17346;DHT22;8790;53.590;10.002;2023-04-24T01:01:55;13.90;99.90
17346;DHT22;8790;53.590;10.002;2023-04-24T01:04:27;13.90;99.90
17346;DHT22;8790;53.590;10.002;2023-04-24T01:06:59;13.90;99.90
17346;DHT22;8790;53.590;10.002;2023-04-24T01:09:32;13.90;99.90
17346;DHT22;8790;53.590;10.002;2023-04-24T01:12:04;13.90;99.90
17346;DHT22;8790;53.590;10.002;2023-04-24T01:14:36;13.90;99.90
17346;DHT22;8790;53.590;10.002;2023-04-24T01:17:08;13.90;99.90
17346;DHT22;8790;53.590;10.002;2023-04-24T01:19:40;13.90;99.90
17346;DHT22;8790;53.590;10.002;2023-04-24T01:22:14;13.90;99.90
17346;DHT22;8790;53.590;10.002;2023-04-24T01:24:46;13.80;99.90
17346;DHT22;8790;53.590;10.002;2023-04-24T01:27:19;13.80;99.90
17346;DHT22;8790;53.590;10.002;2023-04-24T01:29:51;13.80;99.90
17346;DHT22;8790;53.590;10.002;2023-04-24T01:32:23;13.80;99.90
17346;DHT22;8790;53.590;10.002;2023-04-24T01:34:55;13.90;99.90
17346;DHT22;8790;53.590;10.002;2023-04-24T01:37:28;13.80;99.90
17346;DHT22;8790;53.590;10.002;2023-04-24T01:40:00;13.90;99.90
17346;DHT22;8790;53.590;10.002;2023-04-24T01:42:34;13.80;99.90
17346;DHT22;8790;53.590;10.002;2023-04-24T01:45:10;13.80;99.90
17346;DHT22;8790;53.590;10.002;2023-04-24T01:47:43;13.80;99.90
17346;DHT22;8790;53.590;10.002;2023-04-24T01:50:15;13.80;99.90
17346;DHT22;8790;53.590;10.002;2023-04-24T01:52:48;13.80;99.90
17346;DHT22;8790;53.590;10.002;2023-04-24T01:55:20;13.80;99.90
17346;DHT22;8790;53.590;10.002;2023-04-24T01:57:52;13.80;99.90
17346;DHT22;8790;53.590;10.002;2023-04-24T02:00:26;13.80;99.90
17346;DHT22;8790;53.590;10.002;2023-04-24T02:02:58;14.00;99.90
17346;DHT22;8790;53.590;10.002;2023-04-24T02:05:32;14.00;99.90
17346;DHT22;8790;53.590;10.002;2023-04-24T02:08:05;13.90;99.90
17346;DHT22;8790;53.590;10.002;2023-04-24T02:10:36;13.90;99.90
17346;DHT22;8790;53.590;10.002;2023-04-24T02:13:09;13.90;99.90
17346;DHT22;8790;53.590;10.002;2023-04-24T02:15:41;13.90;99.90
17346;DHT22;8790;53.590;10.002;2023-04-24T02:18:13;14.00;99.90
17346;DHT22;8790;53.590;10.002;2023-04-24T02:20:46;13.90;99.90
17346;DHT22;8790;53.590;10.002;2023-04-24T02:23:20;13.90;99.90
17346;DHT22;8790;53.590;10.002;2023-04-24T02:25:51;13.90;99.90
17346;DHT22;8790;53.590;10.002;2023-04-24T02:28:26;13.90;99.90
17346;DHT22;8790;53.590;10.002;2023-04-24T02:30:57;13.80;99.90
17346;DHT22;8790;53.590;10.002;2023-04-24T02:33:30;13.80;99.90
17346;DHT22;8790;53.590;10.002;2023-04-24T02:36:02;13.80;99.90
17346;DHT22;8790;53.590;10.002;2023-04-24T02:38:35;13.80;99.90
17346;DHT22;8790;53.590;10.002;2023-04-24T02:41:07;13.80;99.90
17346;DHT22;8790;53.590;10.002;2023-04-24T02:43:39;13.70;99.90
17346;DHT22;8790;53.590;10.002;2023-04-24T02:46:10;13.70;99.90
17346;DHT22;8790;53.590;10.002;2023-04-24T02:48:42;13.70;99.90
17346;DHT22;8790;53.590;10.002;2023-04-24T02:51:14;13.60;99.90
17346;DHT22;8790;53.590;10.002;2023-04-24T02:53:47;13.50;99.90
17346;DHT22;8790;53.590;10.002;2023-04-24T02:56:19;13.60;99.90
17346;DHT22;8790;53.590;10.002;2023-04-24T02:58:51;13.60;99.90
17346;DHT22;8790;53.590;10.002;2023-04-24T03:01:23;13.40;99.90
17346;DHT22;8790;53.590;10.002;2023-04-24T03:03:55;13.50;99.90
17346;DHT22;8790;53.590;10.002;2023-04-24T03:06:27;13.50;99.90
17346;DHT22;8790;53.590;10.002;2023-04-24T03:09:00;13.60;99.90
17346;DHT22;8790;53.590;10.002;2023-04-24T03:11:31;13.50;99.90
17346;DHT22;8790;53.590;10.002;2023-04-24T03:14:03;13.50;99.90
17346;DHT22;8790;53.590;10.002;2023-04-24T03:16:35;13.50;99.90
17346;DHT22;8790;53.590;10.002;2023-04-24T03:19:07;13.50;99.90
17346;DHT22;8790;53.590;10.002;2023-04-24T03:21:45;13.50;99.90
17346;DHT22;8790;53.590;10.002;2023-04-24T03:24:18;13.30;99.90
17346;DHT22;8790;53.590;10.002;2023-04-24T03:26:51;13.30;99.90
17346;DHT22;8790;53.590;10.002;2023-04-24T03:29:43;13.30;99.90
17346;DHT22;8790;53.590;10.002;2023-04-24T03:32:15;13.40;99.90
17346;DHT22;8790;53.590;10.002;2023-04-24T03:34:48;13.30;99.90
17346;DHT22;8790;53.590;10.002;2023-04-24T03:37:20;13.40;99.90
17346;DHT22;8790;53.590;10.002;2023-04-24T03:40:04;13.30;99.90
17346;DHT22;8790;53.590;10.002;2023-04-24T03:42:40;13.30;99.90
17346;DHT22;8790;53.590;10.002;2023-04-24T03:45:12;13.30;99.90
17346;DHT22;8790;53.590;10.002;2023-04-24T03:47:47;13.20;99.90
17346;DHT22;8790;53.590;10.002;2023-04-24T03:50:19;13.20;99.90
17346;DHT22;8790;53.590;10.002;2023-04-24T03:52:51;13.20;99.90
17346;DHT22;8790;53.590;10.002;2023-04-24T03:55:39;13.30;99.90
17346;DHT22;8790;53.590;10.002;2023-04-24T03:58:10;13.30;99.90
17346;DHT22;8790;53.590;10.002;2023-04-24T04:00:44;13.30;99.90
17346;DHT22;8790;53.590;10.002;2023-04-24T04:03:37;13.30;99.90
17346;DHT22;8790;53.590;10.002;2023-04-24T04:06:09;13.10;99.90
17346;DHT22;8790;53.590;10.002;2023-04-24T04:08:43;13.20;99.90
17346;DHT22;8790;53.590;10.002;2023-04-24T04:11:16;13.20;99.90
17346;DHT22;8790;53.590;10.002;2023-04-24T04:13:50;13.10;99.90
17346;DHT22;8790;53.590;10.002;2023-04-24T04:16:25;13.10;99.90
17346;DHT22;8790;53.590;10.002;2023-04-24T04:19:02;13.10;99.90
17346;DHT22;8790;53.590;10.002;2023-04-24T04:21:34;13.00;99.90
17346;DHT22;8790;53.590;10.002;2023-04-24T04:24:39;13.00;99.90
17346;DHT22;8790;53.590;10.002;2023-04-24T04:27:13;13.10;99.90
17346;DHT22;8790;53.590;10.002;2023-04-24T04:29:53;13.10;99.90
17346;DHT22;8790;53.590;10.002;2023-04-24T04:32:28;13.00;99.90
17346;DHT22;8790;53.590;10.002;2023-04-24T04:35:00;13.00;99.90
17346;DHT22;8790;53.590;10.002;2023-04-24T04:37:35;13.10;99.90
17346;DHT22;8790;53.590;10.002;2023-04-24T04:40:19;13.10;99.90
17346;DHT22;8790;53.590;10.002;2023-04-24T04:42:57;13.10;99.90
17346;DHT22;8790;53.590;10.002;2023-04-24T04:45:33;13.20;99.90
17346;DHT22;8790;53.590;10.002;2023-04-24T04:48:35;13.20;99.90
17346;DHT22;8790;53.590;10.002;2023-04-24T04:51:09;13.20;99.90
17346;DHT22;8790;53.590;10.002;2023-04-24T04:53:42;13.20;99.90
17346;DHT22;8790;53.590;10.002;2023-04-24T04:56:13;13.10;99.90
17346;DHT22;8790;53.590;10.002;2023-04-24T04:58:50;13.10;99.90
17346;DHT22;8790;53.590;10.002;2023-04-24T05:01:22;13.20;99.90
17346;DHT22;8790;53.590;10.002;2023-04-24T05:03:55;13.20;99.90
17346;DHT22;8790;53.590;10.002;2023-04-24T05:06:27;13.20;99.90
17346;DHT22;8790;53.590;10.002;2023-04-24T05:08:59;13.20;99.90
17346;DHT22;8790;53.590;10.002;2023-04-24T05:11:39;13.10;99.90
17346;DHT22;8790;53.590;10.002;2023-04-24T05:14:12;13.10;99.90
17346;DHT22;8790;53.590;10.002;2023-04-24T05:16:45;13.20;99.90
17346;DHT22;8790;53.590;10.002;2023-04-24T05:19:18;13.10;99.90
17346;DHT22;8790;53.590;10.002;2023-04-24T05:21:50;13.20;99.90
17346;DHT22;8790;53.590;10.002;2023-04-24T05:24:22;13.20;99.90
17346;DHT22;8790;53.590;10.002;2023-04-24T05:27:11;13.30;99.90
17346;DHT22;8790;53.590;10.002;2023-04-24T05:29:46;13.20;99.90
17346;DHT22;8790;53.590;10.002;2023-04-24T05:32:18;13.30;99.90
17346;DHT22;8790;53.590;10.002;2023-04-24T05:34:50;13.20;99.90
17346;DHT22;8790;53.590;10.002;2023-04-24T05:37:22;13.10;99.90
17346;DHT22;8790;53.590;10.002;2023-04-24T05:39:54;13.20;99.90
17346;DHT22;8790;53.590;10.002;2023-04-24T05:42:25;13.20;99.90
17346;DHT22;8790;53.590;10.002;2023-04-24T05:44:58;13.20;99.90
17346;DHT22;8790;53.590;10.002;2023-04-24T05:47:31;13.30;99.90
17346;DHT22;8790;53.590;10.002;2023-04-24T05:50:04;13.20;99.90
17346;DHT22;8790;53.590;10.002;2023-04-24T05:52:36;13.20;99.90
17346;DHT22;8790;53.590;10.002;2023-04-24T05:55:15;13.20;99.90
17346;DHT22;8790;53.590;10.002;2023-04-24T05:57:48;13.10;99.90
17346;DHT22;8790;53.590;10.002;2023-04-24T06:00:21;13.20;99.90
17346;DHT22;8790;53.590;10.002;2023-04-24T06:03:02;13.20;99.90
17346;DHT22;8790;53.590;10.002;2023-04-24T06:05:35;13.20;99.90
17346;DHT22;8790;53.590;10.002;2023-04-24T06:08:07;13.20;99.90
17346;DHT22;8790;53.590;10.002;2023-04-24T06:10:43;13.20;99.90
17346;DHT22;8790;53.590;10.002;2023-04-24T06:13:15;13.20;99.90
17346;DHT22;8790;53.590;10.002;2023-04-24T06:16:01;13.20;99.90
17346;DHT22;8790;53.590;10.002;2023-04-24T06:18:38;13.30;99.90
17346;DHT22;8790;53.590;10.002;2023-04-24T06:21:10;13.30;99.90
17346;DHT22;8790;53.590;10.002;2023-04-24T06:23:41;13.30;99.90
17346;DHT22;8790;53.590;10.002;2023-04-24T06:26:13;13.40;99.90
17346;DHT22;8790;53.590;10.002;2023-04-24T06:28:45;13.40;99.90
17346;DHT22;8790;53.590;10.002;2023-04-24T06:31:18;13.30;99.90
17346;DHT22;8790;53.590;10.002;2023-04-24T06:33:50;13.40;99.90
17346;DHT22;8790;53.590;10.002;2023-04-24T06:36:21;13.30;99.90
17346;DHT22;8790;53.590;10.002;2023-04-24T06:38:54;13.40;99.90
17346;DHT22;8790;53.590;10.002;2023-04-24T06:41:25;13.40;99.90
17346;DHT22;8790;53.590;10.002;2023-04-24T06:43:57;13.50;99.90
17346;DHT22;8790;53.590;10.002;2023-04-24T06:46:30;13.50;99.90
17346;DHT22;8790;53.590;10.002;2023-04-24T06:49:02;13.60;99.90
17346;DHT22;8790;53.590;10.002;2023-04-24T06:51:34;13.60;99.90
17346;DHT22;8790;53.590;10.002;2023-04-24T06:54:05;13.60;99.90
17346;DHT22;8790;53.590;10.002;2023-04-24T06:56:37;13.70;99.90
17346;DHT22;8790;53.590;10.002;2023-04-24T06:59:09;13.80;99.90
17346;DHT22;8790;53.590;10.002;2023-04-24T07:01:42;13.80;99.90
17346;DHT22;8790;53.590;10.002;2023-04-24T07:04:14;13.80;99.90
17346;DHT22;8790;53.590;10.002;2023-04-24T07:06:46;13.90;99.90
17346;DHT22;8790;53.590;10.002;2023-04-24T07:09:17;13.90;99.90
17346;DHT22;8790;53.590;10.002;2023-04-24T07:11:49;13.90;99.90
17346;DHT22;8790;53.590;10.002;2023-04-24T07:14:22;13.90;99.90
17346;DHT22;8790;53.590;10.002;2023-04-24T07:16:55;13.90;99.90
17346;DHT22;8790;53.590;10.002;2023-04-24T07:19:27;13.90;99.90
17346;DHT22;8790;53.590;10.002;2023-04-24T07:21:59;14.00;99.90
17346;DHT22;8790;53.590;10.002;2023-04-24T07:24:30;14.00;99.90
17346;DHT22;8790;53.590;10.002;2023-04-24T07:27:03;13.90;99.90
17346;DHT22;8790;53.590;10.002;2023-04-24T07:29:35;14.00;99.90
17346;DHT22;8790;53.590;10.002;2023-04-24T07:32:08;14.00;99.90
17346;DHT22;8790;53.590;10.002;2023-04-24T07:34:40;13.90;99.90
17346;DHT22;8790;53.590;10.002;2023-04-24T07:37:12;14.00;99.90
17346;DHT22;8790;53.590;10.002;2023-04-24T07:39:44;13.90;99.90
17346;DHT22;8790;53.590;10.002;2023-04-24T07:42:15;14.00;99.90
17346;DHT22;8790;53.590;10.002;2023-04-24T07:44:47;14.00;99.90
17346;DHT22;8790;53.590;10.002;2023-04-24T07:47:20;13.90;99.90
17346;DHT22;8790;53.590;10.002;2023-04-24T07:49:52;13.80;99.90
17346;DHT22;8790;53.590;10.002;2023-04-24T07:52:24;13.90;99.90
17346;DHT22;8790;53.590;10.002;2023-04-24T07:54:56;13.90;99.90
17346;DHT22;8790;53.590;10.002;2023-04-24T07:57:30;14.00;99.90
17346;DHT22;8790;53.590;10.002;2023-04-24T08:00:03;14.00;99.90
17346;DHT22;8790;53.590;10.002;2023-04-24T08:02:43;13.90;99.90
17346;DHT22;8790;53.590;10.002;2023-04-24T08:05:15;13.90;99.90
17346;DHT22;8790;53.590;10.002;2023-04-24T08:07:46;13.90;99.90
17346;DHT22;8790;53.590;10.002;2023-04-24T08:10:20;13.90;99.90
17346;DHT22;8790;53.590;10.002;2023-04-24T08:12:52;13.90;99.90
17346;DHT22;8790;53.590;10.002;2023-04-24T08:15:26;13.90;99.90
17346;DHT22;8790;53.590;10.002;2023-04-24T08:18:00;13.80;99.90
17346;DHT22;8790;53.590;10.002;2023-04-24T08:20:31;13.80;99.90
17346;DHT22;8790;53.590;10.002;2023-04-24T08:23:03;13.80;99.90
17346;DHT22;8790;53.590;10.002;2023-04-24T08:25:35;13.80;99.90
17346;DHT22;8790;53.590;10.002;2023-04-24T08:28:08;13.90;99.90
17346;DHT22;8790;53.590;10.002;2023-04-24T08:30:41;14.00;99.90
17346;DHT22;8790;53.590;10.002;2023-04-24T08:33:14;13.90;99.90
17346;DHT22;8790;53.590;10.002;2023-04-24T08:35:45;13.90;99.90
17346;DHT22;8790;53.590;10.002;2023-04-24T08:38:17;13.90;99.90
17346;DHT22;8790;53.590;10.002;2023-04-24T08:40:49;13.90;99.90
17346;DHT22;8790;53.590;10.002;2023-04-24T08:43:21;13.90;99.90
17346;DHT22;8790;53.590;10.002;2023-04-24T08:45:55;14.00;99.90
17346;DHT22;8790;53.590;10.002;2023-04-24T08:48:28;14.00;99.90
17346;DHT22;8790;53.590;10.002;2023-04-24T08:51:00;14.00;99.90
17346;DHT22;8790;53.590;10.002;2023-04-24T08:53:34;13.90;99.90
17346;DHT22;8790;53.590;10.002;2023-04-24T08:56:07;13.90;99.90
17346;DHT22;8790;53.590;10.002;2023-04-24T08:58:39;13.90;99.90
17346;DHT22;8790;53.590;10.002;2023-04-24T09:01:11;13.90;99.90
17346;DHT22;8790;53.590;10.002;2023-04-24T09:03:45;13.90;99.90
17346;DHT22;8790;53.590;10.002;2023-04-24T09:06:18;13.80;99.90
17346;DHT22;8790;53.590;10.002;2023-04-24T09:08:51;13.90;99.90
17346;DHT22;8790;53.590;10.002;2023-04-24T09:11:26;13.90;99.90
17346;DHT22;8790;53.590;10.002;2023-04-24T09:13:59;13.90;99.90
17346;DHT22;8790;53.590;10.002;2023-04-24T09:16:31;14.00;99.90
17346;DHT22;8790;53.590;10.002;2023-04-24T09:19:05;14.00;99.90
17346;DHT22;8790;53.590;10.002;2023-04-24T09:21:36;14.00;99.90
17346;DHT22;8790;53.590;10.002;2023-04-24T09:24:15;14.00;99.90
17346;DHT22;8790;53.590;10.002;2023-04-24T09:26:48;14.10;99.90
17346;DHT22;8790;53.590;10.002;2023-04-24T09:29:20;14.00;99.90
17346;DHT22;8790;53.590;10.002;2023-04-24T09:31:52;13.90;99.90
17346;DHT22;8790;53.590;10.002;2023-04-24T09:34:26;13.90;99.90
17346;DHT22;8790;53.590;10.002;2023-04-24T09:36:58;14.00;99.90
17346;DHT22;8790;53.590;10.002;2023-04-24T09:39:29;14.00;99.90
17346;DHT22;8790;53.590;10.002;2023-04-24T09:42:01;14.10;99.90
17346;DHT22;8790;53.590;10.002;2023-04-24T09:44:34;14.10;99.90
17346;DHT22;8790;53.590;10.002;2023-04-24T09:47:08;14.10;99.90
17346;DHT22;8790;53.590;10.002;2023-04-24T09:49:42;14.10;99.90
17346;DHT22;8790;53.590;10.002;2023-04-24T09:52:15;14.00;99.90
17346;DHT22;8790;53.590;10.002;2023-04-24T09:54:52;13.90;99.90
17346;DHT22;8790;53.590;10.002;2023-04-24T09:57:24;13.90;99.90
17346;DHT22;8790;53.590;10.002;2023-04-24T09:59:57;13.90;99.90
17346;DHT22;8790;53.590;10.002;2023-04-24T10:02:31;13.90;99.90
17346;DHT22;8790;53.590;10.002;2023-04-24T10:05:05;13.90;99.90
17346;DHT22;8790;53.590;10.002;2023-04-24T10:07:38;13.90;99.90
17346;DHT22;8790;53.590;10.002;2023-04-24T10:10:10;13.80;99.90
17346;DHT22;8790;53.590;10.002;2023-04-24T10:12:43;13.90;99.90
17346;DHT22;8790;53.590;10.002;2023-04-24T10:15:15;13.70;99.90
17346;DHT22;8790;53.590;10.002;2023-04-24T10:17:51;13.80;99.90
17346;DHT22;8790;53.590;10.002;2023-04-24T10:20:27;13.80;99.90
17346;DHT22;8790;53.590;10.002;2023-04-24T10:23:01;13.70;99.90
17346;DHT22;8790;53.590;10.002;2023-04-24T10:25:34;13.70;99.90
17346;DHT22;8790;53.590;10.002;2023-04-24T10:28:06;13.70;99.90
17346;DHT22;8790;53.590;10.002;2023-04-24T10:30:39;13.70;99.90
17346;DHT22;8790;53.590;10.002;2023-04-24T10:33:14;13.70;99.90
17346;DHT22;8790;53.590;10.002;2023-04-24T10:35:50;13.90;99.90
17346;DHT22;8790;53.590;10.002;2023-04-24T10:38:25;13.80;99.90
17346;DHT22;8790;53.590;10.002;2023-04-24T10:41:06;13.80;99.90
17346;DHT22;8790;53.590;10.002;2023-04-24T10:43:39;13.90;99.90
17346;DHT22;8790;53.590;10.002;2023-04-24T10:46:19;13.90;99.90
17346;DHT22;8790;53.590;10.002;2023-04-24T10:48:52;13.90;99.90
17346;DHT22;8790;53.590;10.002;2023-04-24T10:51:46;13.80;99.90
17346;DHT22;8790;53.590;10.002;2023-04-24T10:54:26;13.70;99.90
17346;DHT22;8790;53.590;10.002;2023-04-24T10:57:26;13.70;99.90
17346;DHT22;8790;53.590;10.002;2023-04-24T11:00:16;13.70;99.90
17346;DHT22;8790;53.590;10.002;2023-04-24T11:02:52;13.80;99.90
17346;DHT22;8790;53.590;10.002;2023-04-24T11:05:50;13.70;99.90
17346;DHT22;8790;53.590;10.002;2023-04-24T11:08:26;13.70;99.90
17346;DHT22;8790;53.590;10.002;2023-04-24T11:11:03;13.80;99.90
17346;DHT22;8790;53.590;10.002;2023-04-24T11:14:01;13.80;99.90
17346;DHT22;8790;53.590;10.002;2023-04-24T11:16:35;13.80;99.90
17346;DHT22;8790;53.590;10.002;2023-04-24T11:19:10;13.90;99.90
17346;DHT22;8790;53.590;10.002;2023-04-24T11:21:54;14.00;99.90
17346;DHT22;8790;53.590;10.002;2023-04-24T11:24:30;14.10;99.90
17346;DHT22;8790;53.590;10.002;2023-04-24T11:27:09;14.10;99.90
17346;DHT22;8790;53.590;10.002;2023-04-24T11:29:46;14.20;99.90
17346;DHT22;8790;53.590;10.002;2023-04-24T11:32:26;14.30;99.90
17346;DHT22;8790;53.590;10.002;2023-04-24T11:35:00;14.40;99.90
17346;DHT22;8790;53.590;10.002;2023-04-24T11:37:35;14.40;99.90
17346;DHT22;8790;53.590;10.002;2023-04-24T11:40:11;14.50;99.90
17346;DHT22;8790;53.590;10.002;2023-04-24T11:42:44;14.60;99.90
17346;DHT22;8790;53.590;10.002;2023-04-24T11:45:17;14.60;99.90
17346;DHT22;8790;53.590;10.002;2023-04-24T11:47:49;14.70;99.90
17346;DHT22;8790;53.590;10.002;2023-04-24T11:50:22;14.70;99.90
17346;DHT22;8790;53.590;10.002;2023-04-24T11:52:56;14.60;99.90
17346;DHT22;8790;53.590;10.002;2023-04-24T11:55:29;14.60;99.90
17346;DHT22;8790;53.590;10.002;2023-04-24T11:58:01;14.60;99.90
17346;DHT22;8790;53.590;10.002;2023-04-24T12:00:33;14.50;99.90
17346;DHT22;8790;53.590;10.002;2023-04-24T12:03:07;14.50;99.90
17346;DHT22;8790;53.590;10.002;2023-04-24T12:05:41;14.40;99.90
17346;DHT22;8790;53.590;10.002;2023-04-24T12:08:27;14.40;99.90
17346;DHT22;8790;53.590;10.002;2023-04-24T12:11:01;14.20;99.90
17346;DHT22;8790;53.590;10.002;2023-04-24T12:13:33;14.20;99.90
17346;DHT22;8790;53.590;10.002;2023-04-24T12:16:05;14.30;99.90
17346;DHT22;8790;53.590;10.002;2023-04-24T12:18:42;14.40;99.90
17346;DHT22;8790;53.590;10.002;2023-04-24T12:21:18;14.50;99.90
17346;DHT22;8790;53.590;10.002;2023-04-24T12:23:50;14.40;99.90
17346;DHT22;8790;53.590;10.002;2023-04-24T12:26:24;14.40;99.90
17346;DHT22;8790;53.590;10.002;2023-04-24T12:29:01;14.40;99.90
17346;DHT22;8790;53.590;10.002;2023-04-24T12:31:34;14.30;99.90
17346;DHT22;8790;53.590;10.002;2023-04-24T12:34:18;14.30;99.90
17346;DHT22;8790;53.590;10.002;2023-04-24T12:36:49;14.30;99.90
17346;DHT22;8790;53.590;10.002;2023-04-24T12:39:21;14.30;99.90
17346;DHT22;8790;53.590;10.002;2023-04-24T12:41:58;14.40;99.90
17346;DHT22;8790;53.590;10.002;2023-04-24T12:44:32;14.30;99.90
17346;DHT22;8790;53.590;10.002;2023-04-24T12:47:04;14.30;99.90
17346;DHT22;8790;53.590;10.002;2023-04-24T12:49:36;14.20;99.90
17346;DHT22;8790;53.590;10.002;2023-04-24T12:52:08;14.20;99.90
17346;DHT22;8790;53.590;10.002;2023-04-24T12:54:40;14.20;99.90
17346;DHT22;8790;53.590;10.002;2023-04-24T12:57:13;14.20;99.90
17346;DHT22;8790;53.590;10.002;2023-04-24T12:59:44;14.10;99.90
17346;DHT22;8790;53.590;10.002;2023-04-24T13:02:16;14.10;99.90
17346;DHT22;8790;53.590;10.002;2023-04-24T13:04:49;14.00;99.90
17346;DHT22;8790;53.590;10.002;2023-04-24T13:07:21;13.90;99.90
17346;DHT22;8790;53.590;10.002;2023-04-24T13:09:55;13.80;99.90
17346;DHT22;8790;53.590;10.002;2023-04-24T13:12:29;13.80;99.90
17346;DHT22;8790;53.590;10.002;2023-04-24T13:15:01;13.90;99.90
17346;DHT22;8790;53.590;10.002;2023-04-24T13:17:33;13.80;99.90
17346;DHT22;8790;53.590;10.002;2023-04-24T13:20:06;13.80;99.90
17346;DHT22;8790;53.590;10.002;2023-04-24T13:22:37;13.70;99.90
17346;DHT22;8790;53.590;10.002;2023-04-24T13:25:09;13.60;99.90
17346;DHT22;8790;53.590;10.002;2023-04-24T13:27:43;13.60;99.90
17346;DHT22;8790;53.590;10.002;2023-04-24T13:30:15;13.60;99.90
17346;DHT22;8790;53.590;10.002;2023-04-24T13:32:54;13.60;99.90
17346;DHT22;8790;53.590;10.002;2023-04-24T13:35:26;13.60;99.90
17346;DHT22;8790;53.590;10.002;2023-04-24T13:37:58;13.50;99.90
17346;DHT22;8790;53.590;10.002;2023-04-24T13:40:31;13.40;99.90
17346;DHT22;8790;53.590;10.002;2023-04-24T13:43:04;13.50;99.90
17346;DHT22;8790;53.590;10.002;2023-04-24T13:45:36;13.50;99.90
17346;DHT22;8790;53.590;10.002;2023-04-24T13:48:08;13.50;99.90
17346;DHT22;8790;53.590;10.002;2023-04-24T13:50:40;13.50;99.90
17346;DHT22;8790;53.590;10.002;2023-04-24T13:53:12;13.60;99.90
17346;DHT22;8790;53.590;10.002;2023-04-24T13:55:44;13.60;99.90
17346;DHT22;8790;53.590;10.002;2023-04-24T13:58:17;13.60;99.90
17346;DHT22;8790;53.590;10.002;2023-04-24T14:00:49;13.50;99.90
17346;DHT22;8790;53.590;10.002;2023-04-24T14:03:21;13.50;99.90
17346;DHT22;8790;53.590;10.002;2023-04-24T14:05:53;13.40;99.90
17346;DHT22;8790;53.590;10.002;2023-04-24T14:08:24;13.50;99.90
17346;DHT22;8790;53.590;10.002;2023-04-24T14:10:56;13.40;99.90
17346;DHT22;8790;53.590;10.002;2023-04-24T14:13:30;13.50;99.90
17346;DHT22;8790;53.590;10.002;2023-04-24T14:16:01;13.50;99.90
17346;DHT22;8790;53.590;10.002;2023-04-24T14:18:33;13.40;99.90
17346;DHT22;8790;53.590;10.002;2023-04-24T14:21:06;13.40;99.90
17346;DHT22;8790;53.590;10.002;2023-04-24T14:23:38;13.50;99.90
17346;DHT22;8790;53.590;10.002;2023-04-24T14:26:10;13.50;99.90
17346;DHT22;8790;53.590;10.002;2023-04-24T14:28:43;13.40;99.90
17346;DHT22;8790;53.590;10.002;2023-04-24T14:31:15;13.40;99.90
17346;DHT22;8790;53.590;10.002;2023-04-24T14:33:47;13.40;99.90
17346;DHT22;8790;53.590;10.002;2023-04-24T14:36:19;13.40;99.90
17346;DHT22;8790;53.590;10.002;2023-04-24T14:38:50;13.40;99.90
17346;DHT22;8790;53.590;10.002;2023-04-24T14:41:22;13.30;99.90
17346;DHT22;8790;53.590;10.002;2023-04-24T14:43:55;13.20;99.90
17346;DHT22;8790;53.590;10.002;2023-04-24T14:46:27;13.20;99.90
17346;DHT22;8790;53.590;10.002;2023-04-24T14:48:59;13.10;99.90
17346;DHT22;8790;53.590;10.002;2023-04-24T14:51:30;13.00;99.90
17346;DHT22;8790;53.590;10.002;2023-04-24T14:54:02;13.00;99.90
17346;DHT22;8790;53.590;10.002;2023-04-24T14:56:34;12.70;99.90
17346;DHT22;8790;53.590;10.002;2023-04-24T14:59:08;12.60;99.90
17346;DHT22;8790;53.590;10.002;2023-04-24T15:01:39;12.70;99.90
17346;DHT22;8790;53.590;10.002;2023-04-24T15:04:11;12.60;99.90
17346;DHT22;8790;53.590;10.002;2023-04-24T15:06:43;12.50;99.90
17346;DHT22;8790;53.590;10.002;2023-04-24T15:09:14;12.50;99.90
17346;DHT22;8790;53.590;10.002;2023-04-24T15:11:46;12.60;99.90
17346;DHT22;8790;53.590;10.002;2023-04-24T15:14:20;12.40;99.90
17346;DHT22;8790;53.590;10.002;2023-04-24T15:16:51;12.10;99.90
17346;DHT22;8790;53.590;10.002;2023-04-24T15:19:23;12.00;99.90
17346;DHT22;8790;53.590;10.002;2023-04-24T15:21:55;12.10;99.90
17346;DHT22;8790;53.590;10.002;2023-04-24T15:24:27;12.00;99.90
17346;DHT22;8790;53.590;10.002;2023-04-24T15:26:59;11.90;99.90
17346;DHT22;8790;53.590;10.002;2023-04-24T15:29:33;11.70;99.90
17346;DHT22;8790;53.590;10.002;2023-04-24T15:32:05;11.70;99.90
17346;DHT22;8790;53.590;10.002;2023-04-24T15:34:36;11.60;99.90
17346;DHT22;8790;53.590;10.002;2023-04-24T15:37:08;11.50;99.90
17346;DHT22;8790;53.590;10.002;2023-04-24T15:39:40;11.60;99.90
17346;DHT22;8790;53.590;10.002;2023-04-24T15:42:12;11.60;99.90
17346;DHT22;8790;53.590;10.002;2023-04-24T15:44:45;11.50;99.90
17346;DHT22;8790;53.590;10.002;2023-04-24T15:47:17;11.50;99.90
17346;DHT22;8790;53.590;10.002;2023-04-24T15:49:49;11.40;99.90
17346;DHT22;8790;53.590;10.002;2023-04-24T15:52:21;11.30;99.90
17346;DHT22;8790;53.590;10.002;2023-04-24T15:54:53;11.30;99.90
17346;DHT22;8790;53.590;10.002;2023-04-24T15:57:25;11.20;99.90
17346;DHT22;8790;53.590;10.002;2023-04-24T15:59:58;11.20;99.90
17346;DHT22;8790;53.590;10.002;2023-04-24T16:02:30;11.30;99.90
17346;DHT22;8790;53.590;10.002;2023-04-24T16:05:02;11.10;99.90
17346;DHT22;8790;53.590;10.002;2023-04-24T16:07:36;11.10;99.90
17346;DHT22;8790;53.590;10.002;2023-04-24T16:10:09;11.10;99.90